Moon — SFC6412 — position and weather

sailwx.info

Track history (hours):
 
Tides and Currents Weather Stations Pressure Air Temp Water Temp Dewpoint Dewpoint Depression Visibility Wind Speed Wind Dir Waves Ship Positions

Moon

Last reported at 2017-Dec-03 00:10 UTC. Time now 2018-Jan-24 01:42 UTC.
Position N 32°48' W 117°18'.
Warning: this ship's position is 52 days out of date.

Length 12 m.

Type: Sailing vessel. MMSI: 265525820.

Date/timePositionNaut miles runAvg speedWind from/ knotsBaromVisibWave heightAir tempDewpointWater temp
2017-Dec-03 00:10N 32°48' W 117°18'1 6.2
2017-Dec-02 23:56N 32°49' W 117°19'3 6.4
2017-Dec-02 23:30N 32°51' W 117°21'3 6.8
2017-Dec-02 23:00N 32°54' W 117°23'3 6.7
2017-Dec-02 22:30N 32°57' W 117°25'3 6.6
2017-Dec-02 22:00N 33°00' W 117°27'3 6.5
2017-Dec-02 21:30N 33°03' W 117°29'3 6.5
2017-Dec-02 21:00N 33°06' W 117°31'3 6.5
2017-Dec-02 20:30N 33°08' W 117°33'3 6.1
2017-Dec-02 19:58N 33°11' W 117°35'3 5.8
2017-Dec-02 19:30N 33°13' W 117°37'3 5.9
2017-Dec-02 19:00N 33°16' W 117°38'3 5.8
2017-Dec-02 18:30N 33°18' W 117°40'3 5.8
2017-Dec-02 17:59N 33°21' W 117°42'3 5.8
2017-Dec-02 17:29N 33°23' W 117°44'3 5.9
2017-Dec-02 16:59N 33°26' W 117°46'  
2017-Nov-27 09:52N 33°40' W 118°41'2 5.3
2017-Nov-27 09:30N 33°41' W 118°43'3 5.1
2017-Nov-27 08:57N 33°43' W 118°46'2 5.3
2017-Nov-27 08:30N 33°44' W 118°48'3 5.1
2017-Nov-27 08:00N 33°45' W 118°51'3 5.1
2017-Nov-27 07:30N 33°46' W 118°54'2 3.5
2017-Nov-27 07:00N 33°47' W 118°55'2 3.9
2017-Nov-27 06:30N 33°49' W 118°57'2 5.0
2017-Nov-27 06:00N 33°50' W 118°60'3 5.4
2017-Nov-27 05:30N 33°51' W 119°03'3 5.0
2017-Nov-27 05:00N 33°52' W 119°06'2 4.9
2017-Nov-27 04:30N 33°53' W 119°08'3 5.1
2017-Nov-27 04:00N 33°54' W 119°11'3 5.0
2017-Nov-27 03:30N 33°55' W 119°13'2 4.5
2017-Nov-27 03:00N 33°56' W 119°16'3 5.2
2017-Nov-27 02:30N 33°57' W 119°19'3 5.3
2017-Nov-27 01:55N 33°59' W 119°22'2 5.3
2017-Nov-27 01:28N 33°59' W 119°25'2 4.8
2017-Nov-27 01:00N 34°00' W 119°28'2 4.5
2017-Nov-27 00:29N 34°02' W 119°30'2 4.6
2017-Nov-27 00:00N 34°03' W 119°32'0 0.6
2017-Nov-26 23:27N 34°03' W 119°33'0 0.0
2017-Nov-26 22:33N 34°03' W 119°33'0 0.0
2017-Nov-26 22:21N 34°03' W 119°33'0 0.0
2017-Nov-26 22:00N 34°03' W 119°33'0 0.0
2017-Nov-26 20:12N 34°03' W 119°33'0 0.0
2017-Nov-26 20:00N 34°03' W 119°33'0 0.0
2017-Nov-26 19:27N 34°03' W 119°33'0 0.0
2017-Nov-26 06:02N 34°03' W 119°33'0 0.0
2017-Nov-26 05:32N 34°03' W 119°33'0 0.0
2017-Nov-26 05:02N 34°03' W 119°33'0 0.1
2017-Nov-26 04:56N 34°03' W 119°33'0 0.0
2017-Nov-26 03:20N 34°03' W 119°33'0 0.0
2017-Nov-26 02:56N 34°03' W 119°33'0 0.0
2017-Nov-26 02:29N 34°03' W 119°33'0 0.0
2017-Nov-26 01:50N 34°03' W 119°33'0 0.0
2017-Nov-26 01:26N 34°03' W 119°33'0 0.0
2017-Nov-26 00:50N 34°03' W 119°33'0 0.0
2017-Nov-26 00:29N 34°03' W 119°33'0 0.0
2017-Nov-25 23:59N 34°03' W 119°33'0 0.0
2017-Nov-25 23:23N 34°03' W 119°33'0 0.0
2017-Nov-25 22:38N 34°03' W 119°33'0 0.0
2017-Nov-25 21:08N 34°03' W 119°33'0 0.0
2017-Nov-25 20:59N 34°03' W 119°33'0 0.0
2017-Nov-24 20:42N 34°03' W 119°32'1 5.6
2017-Nov-24 20:29N 34°02' W 119°31'18 0.7
2017-Nov-23 19:37N 33°59' W 119°53'1 4.8
2017-Nov-23 19:20N 33°60' W 119°54'  
Track history (hours):
 
Tides and Currents Weather Stations Pressure Air Temp Water Temp Dewpoint Dewpoint Depression Visibility Wind Speed Wind Dir Waves Ship Positions

Moon

Last reported at 2017-Dec-03 00:10 UTC. Time now 2018-Jan-24 01:42 UTC.
Position N 32°48' W 117°18'.
Warning: this ship's position is 52 days out of date.

Length 12 m.

Type: Sailing vessel. MMSI: 265525820.

Date/timePositionNaut miles runAvg speedWind from/ knotsBaromVisibWave heightAir tempDewpointWater temp
2017-Dec-03 00:10N 32°48' W 117°18'1 6.2
2017-Dec-02 23:56N 32°49' W 117°19'3 6.4
2017-Dec-02 23:30N 32°51' W 117°21'3 6.8
2017-Dec-02 23:00N 32°54' W 117°23'3 6.7
2017-Dec-02 22:30N 32°57' W 117°25'3 6.6
2017-Dec-02 22:00N 33°00' W 117°27'3 6.5
2017-Dec-02 21:30N 33°03' W 117°29'3 6.5
2017-Dec-02 21:00N 33°06' W 117°31'3 6.5
2017-Dec-02 20:30N 33°08' W 117°33'3 6.1
2017-Dec-02 19:58N 33°11' W 117°35'3 5.8
2017-Dec-02 19:30N 33°13' W 117°37'3 5.9
2017-Dec-02 19:00N 33°16' W 117°38'3 5.8
2017-Dec-02 18:30N 33°18' W 117°40'3 5.8
2017-Dec-02 17:59N 33°21' W 117°42'3 5.8
2017-Dec-02 17:29N 33°23' W 117°44'3 5.9
2017-Dec-02 16:59N 33°26' W 117°46'  
2017-Nov-27 09:52N 33°40' W 118°41'2 5.3
2017-Nov-27 09:30N 33°41' W 118°43'3 5.1
2017-Nov-27 08:57N 33°43' W 118°46'2 5.3
2017-Nov-27 08:30N 33°44' W 118°48'3 5.1
2017-Nov-27 08:00N 33°45' W 118°51'3 5.1
2017-Nov-27 07:30N 33°46' W 118°54'2 3.5
2017-Nov-27 07:00N 33°47' W 118°55'2 3.9
2017-Nov-27 06:30N 33°49' W 118°57'2 5.0
2017-Nov-27 06:00N 33°50' W 118°60'3 5.4
2017-Nov-27 05:30N 33°51' W 119°03'3 5.0
2017-Nov-27 05:00N 33°52' W 119°06'2 4.9
2017-Nov-27 04:30N 33°53' W 119°08'3 5.1
2017-Nov-27 04:00N 33°54' W 119°11'3 5.0
2017-Nov-27 03:30N 33°55' W 119°13'2 4.5
2017-Nov-27 03:00N 33°56' W 119°16'3 5.2
2017-Nov-27 02:30N 33°57' W 119°19'3 5.3
2017-Nov-27 01:55N 33°59' W 119°22'2 5.3
2017-Nov-27 01:28N 33°59' W 119°25'2 4.8
2017-Nov-27 01:00N 34°00' W 119°28'2 4.5
2017-Nov-27 00:29N 34°02' W 119°30'2 4.6
2017-Nov-27 00:00N 34°03' W 119°32'0 0.6
2017-Nov-26 23:27N 34°03' W 119°33'0 0.0
2017-Nov-26 22:33N 34°03' W 119°33'0 0.0
2017-Nov-26 22:21N 34°03' W 119°33'0 0.0
2017-Nov-26 22:00N 34°03' W 119°33'0 0.0
2017-Nov-26 20:12N 34°03' W 119°33'0 0.0
2017-Nov-26 20:00N 34°03' W 119°33'0 0.0
2017-Nov-26 19:27N 34°03' W 119°33'0 0.0
2017-Nov-26 06:02N 34°03' W 119°33'0 0.0
2017-Nov-26 05:32N 34°03' W 119°33'0 0.0
2017-Nov-26 05:02N 34°03' W 119°33'0 0.1
2017-Nov-26 04:56N 34°03' W 119°33'0 0.0
2017-Nov-26 03:20N 34°03' W 119°33'0 0.0
2017-Nov-26 02:56N 34°03' W 119°33'0 0.0
2017-Nov-26 02:29N 34°03' W 119°33'0 0.0
2017-Nov-26 01:50N 34°03' W 119°33'0 0.0
2017-Nov-26 01:26N 34°03' W 119°33'0 0.0
2017-Nov-26 00:50N 34°03' W 119°33'0 0.0
2017-Nov-26 00:29N 34°03' W 119°33'0 0.0
2017-Nov-25 23:59N 34°03' W 119°33'0 0.0
2017-Nov-25 23:23N 34°03' W 119°33'0 0.0
2017-Nov-25 22:38N 34°03' W 119°33'0 0.0
2017-Nov-25 21:08N 34°03' W 119°33'0 0.0
2017-Nov-25 20:59N 34°03' W 119°33'0 0.0
2017-Nov-24 20:42N 34°03' W 119°32'1 5.6
2017-Nov-24 20:29N 34°02' W 119°31'18 0.7
2017-Nov-23 19:37N 33°59' W 119°53'1 4.8
2017-Nov-23 19:20N 33°60' W 119°54'  

Dump ship's entire track history